Terminal Aerodrome Forecast
Issued by NWS

Home | Current Version | Previous Version | Text Only | Print | Product List | Glossary On
Versions: 1 2 3 4 5 6 7 8 9 10 11 12 13 14 15 16 17
000
FTUS44 KBMX 301000 AAA
TAFMGM
TAF AMD
KMGM 301002Z 3010/0106 04004KT P6SM OVC015
      TEMPO 3011/3014 4SM BR OVC007
     FM301500 06003KT P6SM SKC=

USA.gov is the U.S. government's official web portal to all federal, state and local government web resources and services.